sensor_id;sensor_type;location;lat;lon;timestamp;temperature;humidity
65836;SHT30;52595;51.608;7.216;2023-02-01T00:02:11;5.18;95.99
65836;SHT30;52595;51.608;7.216;2023-02-01T00:04:36;5.13;95.93
65836;SHT30;52595;51.608;7.216;2023-02-01T00:07:02;5.16;95.88
65836;SHT30;52595;51.608;7.216;2023-02-01T00:09:27;5.18;95.67
65836;SHT30;52595;51.608;7.216;2023-02-01T00:11:52;5.18;95.46
65836;SHT30;52595;51.608;7.216;2023-02-01T00:14:18;5.21;95.23
65836;SHT30;52595;51.608;7.216;2023-02-01T00:16:43;5.27;94.92
65836;SHT30;52595;51.608;7.216;2023-02-01T00:19:14;5.28;94.62
65836;SHT30;52595;51.608;7.216;2023-02-01T00:21:40;5.30;94.50
65836;SHT30;52595;51.608;7.216;2023-02-01T00:24:06;5.31;94.16
65836;SHT30;52595;51.608;7.216;2023-02-01T00:26:40;5.35;93.00
65836;SHT30;52595;51.608;7.216;2023-02-01T00:29:11;5.47;91.86
65836;SHT30;52595;51.608;7.216;2023-02-01T00:31:37;5.47;91.50
65836;SHT30;52595;51.608;7.216;2023-02-01T00:34:03;5.52;90.73
65836;SHT30;52595;51.608;7.216;2023-02-01T00:36:28;5.54;90.11
65836;SHT30;52595;51.608;7.216;2023-02-01T00:38:54;5.52;90.06
65836;SHT30;52595;51.608;7.216;2023-02-01T00:41:20;5.55;88.99
65836;SHT30;52595;51.608;7.216;2023-02-01T00:43:47;5.56;88.53
65836;SHT30;52595;51.608;7.216;2023-02-01T00:46:14;5.56;88.33
65836;SHT30;52595;51.608;7.216;2023-02-01T00:48:40;5.61;87.70
65836;SHT30;52595;51.608;7.216;2023-02-01T00:51:11;5.65;86.73
65836;SHT30;52595;51.608;7.216;2023-02-01T00:53:37;5.71;86.27
65836;SHT30;52595;51.608;7.216;2023-02-01T00:56:03;5.73;85.63
65836;SHT30;52595;51.608;7.216;2023-02-01T00:58:29;5.81;84.83
65836;SHT30;52595;51.608;7.216;2023-02-01T01:01:16;5.81;84.31
65836;SHT30;52595;51.608;7.216;2023-02-01T01:03:45;5.81;84.03
65836;SHT30;52595;51.608;7.216;2023-02-01T01:06:13;5.85;83.61
65836;SHT30;52595;51.608;7.216;2023-02-01T01:08:40;5.83;83.34
65836;SHT30;52595;51.608;7.216;2023-02-01T01:11:14;5.81;83.66
65836;SHT30;52595;51.608;7.216;2023-02-01T01:13:40;5.76;83.78
65836;SHT30;52595;51.608;7.216;2023-02-01T01:16:07;5.76;83.42
65836;SHT30;52595;51.608;7.216;2023-02-01T01:18:34;5.76;83.35
65836;SHT30;52595;51.608;7.216;2023-02-01T01:21:00;5.79;83.42
65836;SHT30;52595;51.608;7.216;2023-02-01T01:23:26;5.83;83.43
65836;SHT30;52595;51.608;7.216;2023-02-01T01:25:52;5.78;83.57
65836;SHT30;52595;51.608;7.216;2023-02-01T01:28:17;5.76;83.83
65836;SHT30;52595;51.608;7.216;2023-02-01T01:30:43;5.72;83.92
65836;SHT30;52595;51.608;7.216;2023-02-01T01:33:09;5.75;83.72
65836;SHT30;52595;51.608;7.216;2023-02-01T01:35:34;5.75;83.94
65836;SHT30;52595;51.608;7.216;2023-02-01T01:38:00;5.76;83.99
65836;SHT30;52595;51.608;7.216;2023-02-01T01:40:27;5.79;83.94
65836;SHT30;52595;51.608;7.216;2023-02-01T01:42:52;5.76;84.26
65836;SHT30;52595;51.608;7.216;2023-02-01T01:45:31;5.79;84.09
65836;SHT30;52595;51.608;7.216;2023-02-01T01:48:05;5.75;84.51
65836;SHT30;52595;51.608;7.216;2023-02-01T01:50:58;5.81;84.36
65836;SHT30;52595;51.608;7.216;2023-02-01T01:53:30;5.89;83.95
65836;SHT30;52595;51.608;7.216;2023-02-01T01:55:56;5.91;83.85
65836;SHT30;52595;51.608;7.216;2023-02-01T01:58:25;5.89;84.03
65836;SHT30;52595;51.608;7.216;2023-02-01T02:00:51;5.89;84.38
65836;SHT30;52595;51.608;7.216;2023-02-01T02:03:20;5.93;84.03
65836;SHT30;52595;51.608;7.216;2023-02-01T02:05:49;5.93;84.30
65836;SHT30;52595;51.608;7.216;2023-02-01T02:08:15;5.82;84.82
65836;SHT30;52595;51.608;7.216;2023-02-01T02:10:41;5.98;83.99
65836;SHT30;52595;51.608;7.216;2023-02-01T02:13:26;5.96;84.27
65836;SHT30;52595;51.608;7.216;2023-02-01T02:27:35;5.88;84.77
65836;SHT30;52595;51.608;7.216;2023-02-01T02:30:12;5.88;84.71
65836;SHT30;52595;51.608;7.216;2023-02-01T02:35:57;5.81;85.35
65836;SHT30;52595;51.608;7.216;2023-02-01T02:38:46;5.85;85.06
65836;SHT30;52595;51.608;7.216;2023-02-01T02:47:27;5.78;85.14
65836;SHT30;52595;51.608;7.216;2023-02-01T02:50:01;5.71;85.21
65836;SHT30;52595;51.608;7.216;2023-02-01T02:53:12;5.68;85.28
65836;SHT30;52595;51.608;7.216;2023-02-01T02:55:58;5.71;85.21
65836;SHT30;52595;51.608;7.216;2023-02-01T02:58:45;5.69;85.17
65836;SHT30;52595;51.608;7.216;2023-02-01T03:01:30;5.69;84.94
65836;SHT30;52595;51.608;7.216;2023-02-01T03:04:14;5.72;84.91
65836;SHT30;52595;51.608;7.216;2023-02-01T03:06:43;5.73;84.81
65836;SHT30;52595;51.608;7.216;2023-02-01T03:09:54;5.78;84.12
65836;SHT30;52595;51.608;7.216;2023-02-01T03:12:06;5.76;84.25
65836;SHT30;52595;51.608;7.216;2023-02-01T03:14:55;5.78;84.28
65836;SHT30;52595;51.608;7.216;2023-02-01T03:17:29;5.75;84.24
65836;SHT30;52595;51.608;7.216;2023-02-01T03:19:59;5.73;84.08
65836;SHT30;52595;51.608;7.216;2023-02-01T03:22:28;5.69;84.39
65836;SHT30;52595;51.608;7.216;2023-02-01T03:25:23;5.65;84.49
65836;SHT30;52595;51.608;7.216;2023-02-01T03:27:55;5.69;84.10
65836;SHT30;52595;51.608;7.216;2023-02-01T03:30:27;5.65;84.30
65836;SHT30;52595;51.608;7.216;2023-02-01T03:33:00;5.61;84.18
65836;SHT30;52595;51.608;7.216;2023-02-01T03:35:50;5.66;83.83
65836;SHT30;52595;51.608;7.216;2023-02-01T03:41:17;5.69;83.57
65836;SHT30;52595;51.608;7.216;2023-02-01T03:43:51;5.61;84.16
65836;SHT30;52595;51.608;7.216;2023-02-01T03:46:34;5.65;83.73
65836;SHT30;52595;51.608;7.216;2023-02-01T03:49:04;5.65;83.64
65836;SHT30;52595;51.608;7.216;2023-02-01T03:51:31;5.59;83.90
65836;SHT30;52595;51.608;7.216;2023-02-01T03:53:58;5.62;83.78
65836;SHT30;52595;51.608;7.216;2023-02-01T03:56:27;5.71;83.58
65836;SHT30;52595;51.608;7.216;2023-02-01T03:58:53;5.65;83.74
65836;SHT30;52595;51.608;7.216;2023-02-01T04:01:26;5.68;83.80
65836;SHT30;52595;51.608;7.216;2023-02-01T04:03:52;5.69;83.82
65836;SHT30;52595;51.608;7.216;2023-02-01T04:06:17;5.66;84.01
65836;SHT30;52595;51.608;7.216;2023-02-01T04:08:43;5.65;84.04
65836;SHT30;52595;51.608;7.216;2023-02-01T04:11:08;5.66;84.08
65836;SHT30;52595;51.608;7.216;2023-02-01T04:13:34;5.65;84.39
65836;SHT30;52595;51.608;7.216;2023-02-01T04:16:00;5.63;84.65
65836;SHT30;52595;51.608;7.216;2023-02-01T04:18:25;5.59;84.69
65836;SHT30;52595;51.608;7.216;2023-02-01T04:20:50;5.65;84.75
65836;SHT30;52595;51.608;7.216;2023-02-01T04:23:16;5.66;84.86
65836;SHT30;52595;51.608;7.216;2023-02-01T04:25:41;5.65;85.06
65836;SHT30;52595;51.608;7.216;2023-02-01T04:28:06;5.63;85.28
65836;SHT30;52595;51.608;7.216;2023-02-01T04:30:32;5.65;85.24
65836;SHT30;52595;51.608;7.216;2023-02-01T04:32:58;5.63;85.39
65836;SHT30;52595;51.608;7.216;2023-02-01T04:35:23;5.62;85.39
65836;SHT30;52595;51.608;7.216;2023-02-01T04:37:48;5.65;85.45
65836;SHT30;52595;51.608;7.216;2023-02-01T04:40:14;5.65;85.56
65836;SHT30;52595;51.608;7.216;2023-02-01T04:42:39;5.63;85.67
65836;SHT30;52595;51.608;7.216;2023-02-01T04:45:05;5.62;86.00
65836;SHT30;52595;51.608;7.216;2023-02-01T04:47:31;5.62;85.80
65836;SHT30;52595;51.608;7.216;2023-02-01T04:49:56;5.68;85.75
65836;SHT30;52595;51.608;7.216;2023-02-01T04:52:22;5.63;85.90
65836;SHT30;52595;51.608;7.216;2023-02-01T04:54:47;5.66;85.86
65836;SHT30;52595;51.608;7.216;2023-02-01T04:57:12;5.62;85.92
65836;SHT30;52595;51.608;7.216;2023-02-01T04:59:39;5.59;86.14
65836;SHT30;52595;51.608;7.216;2023-02-01T05:02:04;5.61;86.22
65836;SHT30;52595;51.608;7.216;2023-02-01T05:04:29;5.63;86.17
65836;SHT30;52595;51.608;7.216;2023-02-01T05:06:55;5.59;86.33
65836;SHT30;52595;51.608;7.216;2023-02-01T05:09:20;5.59;86.35
65836;SHT30;52595;51.608;7.216;2023-02-01T05:11:47;5.56;86.63
65836;SHT30;52595;51.608;7.216;2023-02-01T05:14:31;5.58;86.60
65836;SHT30;52595;51.608;7.216;2023-02-01T05:16:56;5.54;86.75
65836;SHT30;52595;51.608;7.216;2023-02-01T05:19:22;5.58;86.71
65836;SHT30;52595;51.608;7.216;2023-02-01T05:21:47;5.59;86.60
65836;SHT30;52595;51.608;7.216;2023-02-01T05:24:12;5.65;86.42
65836;SHT30;52595;51.608;7.216;2023-02-01T05:26:42;5.61;86.58
65836;SHT30;52595;51.608;7.216;2023-02-01T05:29:09;5.62;86.36
65836;SHT30;52595;51.608;7.216;2023-02-01T05:31:35;5.66;86.32
65836;SHT30;52595;51.608;7.216;2023-02-01T05:34:00;5.68;86.15
65836;SHT30;52595;51.608;7.216;2023-02-01T05:36:26;5.63;86.37
65836;SHT30;52595;51.608;7.216;2023-02-01T05:38:51;5.62;86.59
65836;SHT30;52595;51.608;7.216;2023-02-01T05:41:16;5.65;86.52
65836;SHT30;52595;51.608;7.216;2023-02-01T05:43:42;5.65;86.40
65836;SHT30;52595;51.608;7.216;2023-02-01T05:46:07;5.62;86.65
65836;SHT30;52595;51.608;7.216;2023-02-01T05:48:35;5.49;87.12
65836;SHT30;52595;51.608;7.216;2023-02-01T05:51:01;5.38;87.44
65836;SHT30;52595;51.608;7.216;2023-02-01T05:53:26;5.35;87.60
65836;SHT30;52595;51.608;7.216;2023-02-01T05:55:51;5.41;87.48
65836;SHT30;52595;51.608;7.216;2023-02-01T05:58:17;5.42;87.45
65836;SHT30;52595;51.608;7.216;2023-02-01T06:00:42;5.49;87.06
65836;SHT30;52595;51.608;7.216;2023-02-01T06:03:07;5.51;87.30
65836;SHT30;52595;51.608;7.216;2023-02-01T06:05:33;5.51;87.33
65836;SHT30;52595;51.608;7.216;2023-02-01T06:07:58;5.54;87.19
65836;SHT30;52595;51.608;7.216;2023-02-01T06:10:24;5.55;87.12
65836;SHT30;52595;51.608;7.216;2023-02-01T06:12:49;5.56;87.15
65836;SHT30;52595;51.608;7.216;2023-02-01T06:15:15;5.61;86.71
65836;SHT30;52595;51.608;7.216;2023-02-01T06:17:41;5.56;86.86
65836;SHT30;52595;51.608;7.216;2023-02-01T06:20:09;5.56;87.24
65836;SHT30;52595;51.608;7.216;2023-02-01T06:22:35;5.55;87.25
65836;SHT30;52595;51.608;7.216;2023-02-01T06:25:02;5.52;87.38
65836;SHT30;52595;51.608;7.216;2023-02-01T06:27:27;5.48;87.64
65836;SHT30;52595;51.608;7.216;2023-02-01T06:29:53;5.48;87.63
65836;SHT30;52595;51.608;7.216;2023-02-01T06:32:20;5.47;87.63
65836;SHT30;52595;51.608;7.216;2023-02-01T06:34:45;5.51;87.62
65836;SHT30;52595;51.608;7.216;2023-02-01T06:37:11;5.51;87.49
65836;SHT30;52595;51.608;7.216;2023-02-01T06:39:36;5.52;87.43
65836;SHT30;52595;51.608;7.216;2023-02-01T06:42:02;5.54;87.38
65836;SHT30;52595;51.608;7.216;2023-02-01T06:44:28;5.55;87.38
65836;SHT30;52595;51.608;7.216;2023-02-01T06:46:53;5.52;87.40
65836;SHT30;52595;51.608;7.216;2023-02-01T06:49:20;5.55;87.36
65836;SHT30;52595;51.608;7.216;2023-02-01T06:51:45;5.55;87.22
65836;SHT30;52595;51.608;7.216;2023-02-01T06:54:10;5.54;87.50
65836;SHT30;52595;51.608;7.216;2023-02-01T06:56:36;5.51;87.50
65836;SHT30;52595;51.608;7.216;2023-02-01T06:59:03;5.54;87.52
65836;SHT30;52595;51.608;7.216;2023-02-01T07:01:29;5.56;87.44
65836;SHT30;52595;51.608;7.216;2023-02-01T07:03:54;5.56;87.48
65836;SHT30;52595;51.608;7.216;2023-02-01T07:06:20;5.55;87.42
65836;SHT30;52595;51.608;7.216;2023-02-01T07:08:45;5.55;87.47
65836;SHT30;52595;51.608;7.216;2023-02-01T07:11:12;5.54;87.60
65836;SHT30;52595;51.608;7.216;2023-02-01T07:13:38;5.56;87.38
65836;SHT30;52595;51.608;7.216;2023-02-01T07:16:10;5.55;87.68
65836;SHT30;52595;51.608;7.216;2023-02-01T07:18:35;5.55;87.48
65836;SHT30;52595;51.608;7.216;2023-02-01T07:21:01;5.58;87.35
65836;SHT30;52595;51.608;7.216;2023-02-01T07:23:27;5.56;87.59
65836;SHT30;52595;51.608;7.216;2023-02-01T07:25:57;5.56;87.58
65836;SHT30;52595;51.608;7.216;2023-02-01T07:28:23;5.54;87.73
65836;SHT30;52595;51.608;7.216;2023-02-01T07:30:49;5.61;87.58
65836;SHT30;52595;51.608;7.216;2023-02-01T07:33:20;5.61;87.53
65836;SHT30;52595;51.608;7.216;2023-02-01T07:35:47;5.62;87.44
65836;SHT30;52595;51.608;7.216;2023-02-01T07:38:12;5.63;87.49
65836;SHT30;52595;51.608;7.216;2023-02-01T07:40:38;5.65;87.52
65836;SHT30;52595;51.608;7.216;2023-02-01T07:43:03;5.66;87.60
65836;SHT30;52595;51.608;7.216;2023-02-01T07:45:31;5.65;87.61
65836;SHT30;52595;51.608;7.216;2023-02-01T07:47:56;5.65;87.77
65836;SHT30;52595;51.608;7.216;2023-02-01T07:50:22;5.61;87.82
65836;SHT30;52595;51.608;7.216;2023-02-01T07:52:47;5.61;87.95
65836;SHT30;52595;51.608;7.216;2023-02-01T07:55:13;5.62;87.91
65836;SHT30;52595;51.608;7.216;2023-02-01T07:57:38;5.59;87.97
65836;SHT30;52595;51.608;7.216;2023-02-01T08:00:04;5.62;87.97
65836;SHT30;52595;51.608;7.216;2023-02-01T08:02:48;5.59;88.24
65836;SHT30;52595;51.608;7.216;2023-02-01T08:05:13;5.59;88.19
65836;SHT30;52595;51.608;7.216;2023-02-01T08:07:39;5.61;88.18
65836;SHT30;52595;51.608;7.216;2023-02-01T08:10:04;5.58;88.27
65836;SHT30;52595;51.608;7.216;2023-02-01T08:12:35;5.59;88.22
65836;SHT30;52595;51.608;7.216;2023-02-01T08:15:01;5.62;88.28
65836;SHT30;52595;51.608;7.216;2023-02-01T08:17:26;5.62;88.13
65836;SHT30;52595;51.608;7.216;2023-02-01T08:19:53;5.59;88.33
65836;SHT30;52595;51.608;7.216;2023-02-01T08:22:19;5.61;88.30
65836;SHT30;52595;51.608;7.216;2023-02-01T08:24:47;5.62;88.45
65836;SHT30;52595;51.608;7.216;2023-02-01T08:27:13;5.61;88.38
65836;SHT30;52595;51.608;7.216;2023-02-01T08:29:38;5.62;88.43
65836;SHT30;52595;51.608;7.216;2023-02-01T08:32:04;5.65;88.36
65836;SHT30;52595;51.608;7.216;2023-02-01T08:34:30;5.66;88.31
65836;SHT30;52595;51.608;7.216;2023-02-01T08:36:55;5.72;88.28
65836;SHT30;52595;51.608;7.216;2023-02-01T08:39:24;5.72;88.24
65836;SHT30;52595;51.608;7.216;2023-02-01T08:41:50;5.71;88.37
65836;SHT30;52595;51.608;7.216;2023-02-01T08:44:33;5.72;88.19
65836;SHT30;52595;51.608;7.216;2023-02-01T08:46:59;5.73;88.24
65836;SHT30;52595;51.608;7.216;2023-02-01T08:49:24;5.75;88.21
65836;SHT30;52595;51.608;7.216;2023-02-01T08:51:49;5.79;88.18
65836;SHT30;52595;51.608;7.216;2023-02-01T08:54:15;5.79;88.36
65836;SHT30;52595;51.608;7.216;2023-02-01T08:56:40;5.85;88.03
65836;SHT30;52595;51.608;7.216;2023-02-01T08:59:06;5.85;88.13
65836;SHT30;52595;51.608;7.216;2023-02-01T09:01:31;5.83;88.02
65836;SHT30;52595;51.608;7.216;2023-02-01T09:03:56;5.83;88.12
65836;SHT30;52595;51.608;7.216;2023-02-01T09:06:22;5.82;88.21
65836;SHT30;52595;51.608;7.216;2023-02-01T09:08:47;5.88;88.26
65836;SHT30;52595;51.608;7.216;2023-02-01T09:11:15;5.88;87.98
65836;SHT30;52595;51.608;7.216;2023-02-01T09:13:41;5.89;88.15
65836;SHT30;52595;51.608;7.216;2023-02-01T09:16:06;5.95;87.96
65836;SHT30;52595;51.608;7.216;2023-02-01T09:18:32;5.93;87.75
65836;SHT30;52595;51.608;7.216;2023-02-01T09:20:57;5.99;87.78
65836;SHT30;52595;51.608;7.216;2023-02-01T09:23:23;5.95;87.78
65836;SHT30;52595;51.608;7.216;2023-02-01T09:25:48;5.96;87.90
65836;SHT30;52595;51.608;7.216;2023-02-01T09:28:16;6.01;87.91
65836;SHT30;52595;51.608;7.216;2023-02-01T09:30:42;5.99;87.75
65836;SHT30;52595;51.608;7.216;2023-02-01T09:33:07;6.02;87.62
65836;SHT30;52595;51.608;7.216;2023-02-01T09:35:33;6.12;87.53
65836;SHT30;52595;51.608;7.216;2023-02-01T09:37:58;6.13;87.41
65836;SHT30;52595;51.608;7.216;2023-02-01T09:40:24;6.14;87.21
65836;SHT30;52595;51.608;7.216;2023-02-01T09:45:50;6.12;87.05
65836;SHT30;52595;51.608;7.216;2023-02-01T09:48:24;6.12;87.29
65836;SHT30;52595;51.608;7.216;2023-02-01T09:50:57;6.13;87.24
65836;SHT30;52595;51.608;7.216;2023-02-01T09:53:34;6.09;87.22
65836;SHT30;52595;51.608;7.216;2023-02-01T09:56:05;6.06;87.33
65836;SHT30;52595;51.608;7.216;2023-02-01T09:58:38;6.07;87.27
65836;SHT30;52595;51.608;7.216;2023-02-01T10:01:09;6.10;87.07
65836;SHT30;52595;51.608;7.216;2023-02-01T10:03:37;6.10;87.15
65836;SHT30;52595;51.608;7.216;2023-02-01T10:11:46;6.22;86.59
65836;SHT30;52595;51.608;7.216;2023-02-01T10:14:42;6.26;86.54
65836;SHT30;52595;51.608;7.216;2023-02-01T10:17:24;6.24;86.38
65836;SHT30;52595;51.608;7.216;2023-02-01T10:22:38;6.32;86.30
65836;SHT30;52595;51.608;7.216;2023-02-01T10:25:28;6.32;86.13
65836;SHT30;52595;51.608;7.216;2023-02-01T10:27:59;6.32;86.00
65836;SHT30;52595;51.608;7.216;2023-02-01T10:30:31;6.26;86.03
65836;SHT30;52595;51.608;7.216;2023-02-01T10:33:39;6.29;86.08
65836;SHT30;52595;51.608;7.216;2023-02-01T10:36:31;6.27;86.13
65836;SHT30;52595;51.608;7.216;2023-02-01T10:39:00;6.29;85.99
65836;SHT30;52595;51.608;7.216;2023-02-01T10:41:31;6.27;85.93
65836;SHT30;52595;51.608;7.216;2023-02-01T10:43:58;6.29;86.00
65836;SHT30;52595;51.608;7.216;2023-02-01T10:46:25;6.29;85.87
65836;SHT30;52595;51.608;7.216;2023-02-01T10:48:52;6.37;85.95
65836;SHT30;52595;51.608;7.216;2023-02-01T10:51:24;6.38;85.78
65836;SHT30;52595;51.608;7.216;2023-02-01T10:54:03;6.37;85.71
65836;SHT30;52595;51.608;7.216;2023-02-01T10:56:37;6.38;85.65
65836;SHT30;52595;51.608;7.216;2023-02-01T10:59:11;6.43;85.51
65836;SHT30;52595;51.608;7.216;2023-02-01T11:01:41;6.40;85.50
65836;SHT30;52595;51.608;7.216;2023-02-01T11:04:10;6.44;85.51
65836;SHT30;52595;51.608;7.216;2023-02-01T11:07:07;6.41;85.55
65836;SHT30;52595;51.608;7.216;2023-02-01T11:09:38;6.50;85.51
65836;SHT30;52595;51.608;7.216;2023-02-01T11:12:04;6.56;85.49
65836;SHT30;52595;51.608;7.216;2023-02-01T11:14:39;6.56;85.36
65836;SHT30;52595;51.608;7.216;2023-02-01T11:19:47;6.57;85.58
65836;SHT30;52595;51.608;7.216;2023-02-01T11:22:20;6.53;85.52
65836;SHT30;52595;51.608;7.216;2023-02-01T11:24:46;6.58;85.40
65836;SHT30;52595;51.608;7.216;2023-02-01T11:27:17;6.66;85.24
65836;SHT30;52595;51.608;7.216;2023-02-01T11:29:48;6.77;84.95
65836;SHT30;52595;51.608;7.216;2023-02-01T11:32:17;6.78;84.86
65836;SHT30;52595;51.608;7.216;2023-02-01T11:34:46;6.81;84.97
65836;SHT30;52595;51.608;7.216;2023-02-01T11:37:22;6.76;84.83
65836;SHT30;52595;51.608;7.216;2023-02-01T11:40:00;6.74;84.75
65836;SHT30;52595;51.608;7.216;2023-02-01T11:42:27;6.73;84.87
65836;SHT30;52595;51.608;7.216;2023-02-01T11:45:45;6.78;85.00
65836;SHT30;52595;51.608;7.216;2023-02-01T11:48:09;6.74;85.19
65836;SHT30;52595;51.608;7.216;2023-02-01T11:50:44;6.57;86.65
65836;SHT30;52595;51.608;7.216;2023-02-01T11:53:38;6.22;89.44
65836;SHT30;52595;51.608;7.216;2023-02-01T11:56:29;5.99;91.25
65836;SHT30;52595;51.608;7.216;2023-02-01T11:59:25;5.79;92.51
65836;SHT30;52595;51.608;7.216;2023-02-01T12:07:23;5.62;93.54
65836;SHT30;52595;51.608;7.216;2023-02-01T12:10:10;5.54;94.36
65836;SHT30;52595;51.608;7.216;2023-02-01T12:16:00;5.52;94.78
65836;SHT30;52595;51.608;7.216;2023-02-01T12:21:37;5.55;94.92
65836;SHT30;52595;51.608;7.216;2023-02-01T12:26:52;5.65;95.00
65836;SHT30;52595;51.608;7.216;2023-02-01T12:32:25;5.86;93.51
65836;SHT30;52595;51.608;7.216;2023-02-01T12:35:41;6.01;92.21
65836;SHT30;52595;51.608;7.216;2023-02-01T12:38:21;6.06;92.01
65836;SHT30;52595;51.608;7.216;2023-02-01T12:46:14;6.06;92.22
65836;SHT30;52595;51.608;7.216;2023-02-01T12:49:16;6.19;90.82
65836;SHT30;52595;51.608;7.216;2023-02-01T12:51:46;6.22;90.24
65836;SHT30;52595;51.608;7.216;2023-02-01T12:56:53;6.32;89.40
65836;SHT30;52595;51.608;7.216;2023-02-01T12:59:27;6.22;90.23
65836;SHT30;52595;51.608;7.216;2023-02-01T13:02:01;6.12;90.82
65836;SHT30;52595;51.608;7.216;2023-02-01T13:04:37;6.24;89.71
65836;SHT30;52595;51.608;7.216;2023-02-01T13:07:14;6.30;89.38
65836;SHT30;52595;51.608;7.216;2023-02-01T13:09:52;6.38;88.93
65836;SHT30;52595;51.608;7.216;2023-02-01T13:12:29;6.34;89.81
65836;SHT30;52595;51.608;7.216;2023-02-01T13:15:03;6.17;91.11
65836;SHT30;52595;51.608;7.216;2023-02-01T13:17:32;6.13;91.47
65836;SHT30;52595;51.608;7.216;2023-02-01T13:22:45;6.34;89.32
65836;SHT30;52595;51.608;7.216;2023-02-01T13:25:15;6.44;88.94
65836;SHT30;52595;51.608;7.216;2023-02-01T13:27:41;6.61;87.84
65836;SHT30;52595;51.608;7.216;2023-02-01T13:30:15;6.63;87.80
65836;SHT30;52595;51.608;7.216;2023-02-01T13:38:43;6.74;87.50
65836;SHT30;52595;51.608;7.216;2023-02-01T13:41:27;6.87;86.65
65836;SHT30;52595;51.608;7.216;2023-02-01T13:44:05;6.91;86.52
65836;SHT30;52595;51.608;7.216;2023-02-01T13:46:40;6.95;86.03
65836;SHT30;52595;51.608;7.216;2023-02-01T13:49:22;7.02;85.95
65836;SHT30;52595;51.608;7.216;2023-02-01T13:51:53;7.11;85.47
65836;SHT30;52595;51.608;7.216;2023-02-01T13:56:50;7.14;85.53
65836;SHT30;52595;51.608;7.216;2023-02-01T14:10:54;7.04;86.34
65836;SHT30;52595;51.608;7.216;2023-02-01T14:13:36;7.04;86.47
65836;SHT30;52595;51.608;7.216;2023-02-01T14:23:46;7.02;87.96
65836;SHT30;52595;51.608;7.216;2023-02-01T14:32:20;6.63;90.55
65836;SHT30;52595;51.608;7.216;2023-02-01T14:42:38;6.53;91.97
65836;SHT30;52595;51.608;7.216;2023-02-01T14:50:32;6.76;89.93
65836;SHT30;52595;51.608;7.216;2023-02-01T14:58:02;6.98;88.46
65836;SHT30;52595;51.608;7.216;2023-02-01T15:00:29;7.09;87.34
65836;SHT30;52595;51.608;7.216;2023-02-01T15:05:38;7.19;86.86
65836;SHT30;52595;51.608;7.216;2023-02-01T15:08:16;7.23;86.40
65836;SHT30;52595;51.608;7.216;2023-02-01T15:10:45;7.25;86.31
65836;SHT30;52595;51.608;7.216;2023-02-01T15:13:25;7.26;86.34
65836;SHT30;52595;51.608;7.216;2023-02-01T15:16:13;6.97;88.15
65836;SHT30;52595;51.608;7.216;2023-02-01T15:18:39;6.57;91.49
65836;SHT30;52595;51.608;7.216;2023-02-01T15:21:06;6.41;92.26
65836;SHT30;52595;51.608;7.216;2023-02-01T15:23:33;6.47;91.60
65836;SHT30;52595;51.608;7.216;2023-02-01T15:25:58;6.51;91.46
65836;SHT30;52595;51.608;7.216;2023-02-01T15:28:25;6.68;90.11
65836;SHT30;52595;51.608;7.216;2023-02-01T15:31:02;6.88;89.03
65836;SHT30;52595;51.608;7.216;2023-02-01T15:33:30;6.94;88.99
65836;SHT30;52595;51.608;7.216;2023-02-01T15:38:34;7.01;88.14
65836;SHT30;52595;51.608;7.216;2023-02-01T15:43:39;7.16;86.79
65836;SHT30;52595;51.608;7.216;2023-02-01T15:46:11;7.29;86.08
65836;SHT30;52595;51.608;7.216;2023-02-01T15:48:41;7.36;85.71
65836;SHT30;52595;51.608;7.216;2023-02-01T15:51:13;7.39;85.74
65836;SHT30;52595;51.608;7.216;2023-02-01T15:53:44;7.36;85.38
65836;SHT30;52595;51.608;7.216;2023-02-01T15:56:10;7.23;86.79
65836;SHT30;52595;51.608;7.216;2023-02-01T15:58:35;7.08;87.52
65836;SHT30;52595;51.608;7.216;2023-02-01T16:01:03;6.89;88.56
65836;SHT30;52595;51.608;7.216;2023-02-01T16:06:00;7.07;88.03
65836;SHT30;52595;51.608;7.216;2023-02-01T16:08:28;7.12;87.70
65836;SHT30;52595;51.608;7.216;2023-02-01T16:11:00;7.23;86.92
65836;SHT30;52595;51.608;7.216;2023-02-01T16:13:27;7.25;86.80
65836;SHT30;52595;51.608;7.216;2023-02-01T16:15:52;7.28;86.80
65836;SHT30;52595;51.608;7.216;2023-02-01T16:18:17;7.31;86.57
65836;SHT30;52595;51.608;7.216;2023-02-01T16:20:44;7.33;86.03
65836;SHT30;52595;51.608;7.216;2023-02-01T16:23:10;7.29;86.07
65836;SHT30;52595;51.608;7.216;2023-02-01T16:25:36;7.18;87.40
65836;SHT30;52595;51.608;7.216;2023-02-01T16:28:02;7.05;87.86
65836;SHT30;52595;51.608;7.216;2023-02-01T16:30:28;6.83;89.86
65836;SHT30;52595;51.608;7.216;2023-02-01T16:33:00;6.53;93.65
65836;SHT30;52595;51.608;7.216;2023-02-01T16:35:37;6.33;94.85
65836;SHT30;52595;51.608;7.216;2023-02-01T16:38:10;6.33;93.33
65836;SHT30;52595;51.608;7.216;2023-02-01T16:40:39;6.14;95.77
65836;SHT30;52595;51.608;7.216;2023-02-01T16:43:14;6.03;96.51
65836;SHT30;52595;51.608;7.216;2023-02-01T16:45:41;5.93;97.49
65836;SHT30;52595;51.608;7.216;2023-02-01T16:48:18;5.88;98.02
65836;SHT30;52595;51.608;7.216;2023-02-01T16:50:46;5.89;98.57
65836;SHT30;52595;51.608;7.216;2023-02-01T16:53:12;5.91;98.38
65836;SHT30;52595;51.608;7.216;2023-02-01T16:55:39;5.00;99.45
65836;SHT30;52595;51.608;7.216;2023-02-01T16:58:04;4.74;99.37
65836;SHT30;52595;51.608;7.216;2023-02-01T17:00:30;4.70;99.99
65836;SHT30;52595;51.608;7.216;2023-02-01T17:02:58;4.72;99.99
65836;SHT30;52595;51.608;7.216;2023-02-01T17:05:25;4.73;99.86
65836;SHT30;52595;51.608;7.216;2023-02-01T17:07:51;4.70;99.99
65836;SHT30;52595;51.608;7.216;2023-02-01T17:10:21;4.67;99.99
65836;SHT30;52595;51.608;7.216;2023-02-01T17:12:47;4.64;99.99
65836;SHT30;52595;51.608;7.216;2023-02-01T17:15:13;4.67;99.99
65836;SHT30;52595;51.608;7.216;2023-02-01T17:17:38;4.54;99.99
65836;SHT30;52595;51.608;7.216;2023-02-01T17:20:09;4.54;99.99
65836;SHT30;52595;51.608;7.216;2023-02-01T17:22:42;4.49;99.99
65836;SHT30;52595;51.608;7.216;2023-02-01T17:25:14;4.49;99.99
65836;SHT30;52595;51.608;7.216;2023-02-01T17:27:41;4.39;99.99
65836;SHT30;52595;51.608;7.216;2023-02-01T17:30:07;4.38;99.99
65836;SHT30;52595;51.608;7.216;2023-02-01T17:32:35;4.36;99.99
65836;SHT30;52595;51.608;7.216;2023-02-01T17:35:00;4.41;99.99
65836;SHT30;52595;51.608;7.216;2023-02-01T17:37:28;4.43;99.99
65836;SHT30;52595;51.608;7.216;2023-02-01T17:39:54;4.43;99.99
65836;SHT30;52595;51.608;7.216;2023-02-01T17:42:19;4.53;99.99
65836;SHT30;52595;51.608;7.216;2023-02-01T17:44:45;4.53;99.99
65836;SHT30;52595;51.608;7.216;2023-02-01T17:47:10;4.56;99.99
65836;SHT30;52595;51.608;7.216;2023-02-01T17:49:36;4.57;99.99
65836;SHT30;52595;51.608;7.216;2023-02-01T17:52:04;4.60;99.99
65836;SHT30;52595;51.608;7.216;2023-02-01T17:54:29;4.67;99.99
65836;SHT30;52595;51.608;7.216;2023-02-01T17:56:54;4.72;99.99
65836;SHT30;52595;51.608;7.216;2023-02-01T17:59:24;4.76;99.99
65836;SHT30;52595;51.608;7.216;2023-02-01T18:01:50;4.76;99.99
65836;SHT30;52595;51.608;7.216;2023-02-01T18:04:17;4.83;99.99
65836;SHT30;52595;51.608;7.216;2023-02-01T18:06:43;4.94;99.99
65836;SHT30;52595;51.608;7.216;2023-02-01T18:09:09;5.14;99.99
65836;SHT30;52595;51.608;7.216;2023-02-01T18:11:34;5.28;99.09